Time;durP1;ratioP1;P1;durP2;ratioP2;P2;SDS_P1;SDS_P2;PMS_P1;PMS_P2;Temp;Humidity;BMP_temperature;BMP_pressure;BME280_temperature;BME280_humidity;BME280_pressure;Samples;Min_cycle;Max_cycle;Signal;HPM_P1;HPM_P2
2024/01/18 00:00:30;;;;;;;39.08;28.88;;;;;;;2.82;100.00;97759.03;5012125;28;20029;-72
2024/01/18 00:02:56;;;;;;;40.15;28.02;;;;;;;2.87;100.00;97775.59;5029188;28;20048;-72
2024/01/18 00:05:21;;;;;;;40.28;28.90;;;;;;;3.29;100.00;97799.22;5028417;28;20025;-72
2024/01/18 00:07:47;;;;;;;43.65;30.63;;;;;;;3.17;100.00;97736.91;5011154;28;20065;-72
2024/01/18 00:10:12;;;;;;;43.55;29.38;;;;;;;2.81;100.00;97775.81;5029379;28;20045;-73
2024/01/18 00:12:38;;;;;;;41.95;27.58;;;;;;;2.71;100.00;97789.50;5012211;28;20030;-73
2024/01/18 00:15:04;;;;;;;36.80;26.40;;;;;;;2.82;100.00;97754.84;5012247;28;20029;-72
2024/01/18 00:17:30;;;;;;;42.20;29.17;;;;;;;3.11;100.00;97814.91;5028627;28;20036;-72
2024/01/18 00:19:56;;;;;;;50.85;32.42;;;;;;;3.06;100.00;97820.94;5029894;28;20079;-73
2024/01/18 00:22:21;;;;;;;50.95;34.25;;;;;;;3.10;100.00;97828.34;5028812;28;20037;-74
2024/01/18 00:24:47;;;;;;;47.88;30.50;;;;;;;2.91;100.00;97839.81;5029120;28;20462;-73
2024/01/18 00:27:14;;;;;;;43.38;27.45;;;;;;;2.75;100.00;97850.41;5029856;28;20033;-73
2024/01/18 00:29:40;;;;;;;40.38;27.67;;;;;;;2.51;100.00;97801.84;5028610;28;20087;-73
2024/01/18 00:32:05;;;;;;;39.60;27.13;;;;;;;2.56;100.00;97784.97;5029897;28;20384;-72
2024/01/18 00:34:31;;;;;;;40.22;26.40;;;;;;;2.82;100.00;97852.66;5029285;28;20060;-73
2024/01/18 00:36:56;;;;;;;49.58;32.75;;;;;;;2.62;100.00;97833.22;5029219;28;20095;-73
2024/01/18 00:39:22;;;;;;;54.88;34.05;;;;;;;2.20;100.00;97804.47;5028614;28;20487;-72
2024/01/18 00:41:48;;;;;;;45.70;29.50;;;;;;;2.25;100.00;97786.78;5029162;28;20502;-72
2024/01/18 00:44:14;;;;;;;47.45;29.85;;;;;;;2.68;100.00;97812.16;5029054;28;20459;-72
2024/01/18 00:46:40;;;;;;;40.28;27.55;;;;;;;2.56;100.00;97797.50;5028783;28;20060;-73
2024/01/18 00:49:05;;;;;;;35.00;24.30;;;;;;;2.29;100.00;97739.03;5011034;28;20057;-72
2024/01/18 00:51:31;;;;;;;30.63;20.98;;;;;;;2.29;100.00;97733.22;5029193;28;20045;-71
2024/01/18 00:53:56;;;;;;;28.23;18.23;;;;;;;2.11;100.00;97757.16;5028503;28;20091;-72
2024/01/18 00:56:22;;;;;;;27.02;19.55;;;;;;;2.07;100.00;97758.09;5010910;28;20084;-72
2024/01/18 00:58:49;;;;;;;26.15;18.73;;;;;;;2.32;100.00;97786.53;5011521;28;20025;-72
2024/01/18 01:01:15;;;;;;;26.85;19.20;;;;;;;2.44;100.00;97787.84;5028602;28;20040;-72
2024/01/18 01:03:41;;;;;;;32.95;22.20;;;;;;;2.25;100.00;97735.00;5027815;28;20021;-72
2024/01/18 01:06:10;;;;;;;38.95;24.70;;;;;;;2.17;100.00;97739.41;5010876;28;20034;-72
2024/01/18 01:08:35;;;;;;;34.95;21.90;;;;;;;2.41;100.00;97700.22;5028906;28;20088;-72
2024/01/18 01:11:03;;;;;;;38.72;23.48;;;;;;;2.29;100.00;97713.16;5028223;28;20045;-72
2024/01/18 01:13:29;;;;;;;40.47;23.98;;;;;;;2.28;100.00;97694.78;5011852;28;20056;-73
2024/01/18 01:15:54;;;;;;;39.60;27.77;;;;;;;1.85;100.00;97683.66;5010092;28;20057;-72
2024/01/18 01:18:20;;;;;;;53.08;38.35;;;;;;;2.32;100.00;97748.13;5027338;28;20068;-72
2024/01/18 01:20:45;;;;;;;40.72;29.05;;;;;;;2.49;100.00;97760.97;5030500;28;20475;-73
2024/01/18 01:23:11;;;;;;;38.75;27.77;;;;;;;2.50;100.00;97738.34;5013531;28;20033;-73
2024/01/18 01:25:36;;;;;;;31.88;23.45;;;;;;;2.44;100.00;97738.53;5030845;28;20079;-73
2024/01/18 01:28:02;;;;;;;33.13;23.35;;;;;;;2.19;100.00;97689.25;5031410;28;20419;-73
2024/01/18 01:30:27;;;;;;;38.05;26.38;;;;;;;2.42;100.00;97757.00;5031027;28;20053;-72
2024/01/18 01:32:53;;;;;;;34.10;23.88;;;;;;;2.57;100.00;97734.78;5028972;28;20029;-72
2024/01/18 01:35:18;;;;;;;42.70;26.38;;;;;;;2.23;100.00;97753.44;5029411;28;20025;-72
2024/01/18 01:37:43;;;;;;;47.95;30.58;;;;;;;1.73;100.00;97722.41;5013169;28;20121;-72
2024/01/18 01:40:09;;;;;;;43.90;27.38;;;;;;;2.44;100.00;97748.56;5031110;28;20029;-72
2024/01/18 01:42:35;;;;;;;41.65;26.92;;;;;;;2.56;100.00;97723.13;5029015;28;20037;-70
2024/01/18 01:45:00;;;;;;;51.00;30.75;;;;;;;2.44;100.00;97713.47;5013169;28;20033;-72
2024/01/18 01:47:26;;;;;;;56.53;31.77;;;;;;;2.37;100.00;97683.66;5013356;28;20032;-72
2024/01/18 01:49:51;;;;;;;57.92;33.20;;;;;;;2.77;100.00;97686.50;5030161;28;20060;-73
2024/01/18 01:52:17;;;;;;;57.20;34.45;;;;;;;2.98;100.00;97703.28;5029608;28;20033;-73
2024/01/18 01:54:46;;;;;;;61.33;35.28;;;;;;;2.34;100.00;97598.53;5030899;28;20037;-73
2024/01/18 01:57:13;;;;;;;62.30;36.75;;;;;;;2.32;100.00;97671.28;5013418;28;20040;-73
2024/01/18 01:59:39;;;;;;;72.05;40.28;;;;;;;2.38;100.00;97683.59;5029079;28;20052;-72
2024/01/18 02:02:06;;;;;;;66.38;39.30;;;;;;;2.91;100.00;97699.34;5030598;28;20464;-72
2024/01/18 02:04:32;;;;;;;70.50;38.22;;;;;;;2.64;100.00;97645.94;5011610;28;20419;-73
2024/01/18 02:06:58;;;;;;;65.28;38.35;;;;;;;2.98;100.00;97663.16;5030555;28;20025;-72
2024/01/18 02:09:25;;;;;;;60.17;38.03;;;;;;;2.17;100.00;97623.34;5030007;28;20066;-72
2024/01/18 02:11:51;;;;;;;53.83;33.60;;;;;;;2.35;100.00;97667.84;4961291;28;1415698;-72
2024/01/18 02:14:17;;;;;;;52.78;31.15;;;;;;;2.85;100.00;97682.03;5012442;28;20042;-72
2024/01/18 02:16:43;;;;;;;44.38;28.85;;;;;;;2.88;100.00;97676.88;5012539;28;20022;-72
2024/01/18 02:19:08;;;;;;;47.42;30.35;;;;;;;3.03;100.00;97706.44;5012456;28;20029;-72
2024/01/18 02:21:34;;;;;;;63.53;38.22;;;;;;;2.99;100.00;97686.56;5012303;28;20033;-72
2024/01/18 02:24:09;;;;;;;52.22;33.03;;;;;;;2.76;100.00;97672.28;5010374;28;20042;-72
2024/01/18 02:26:35;;;;;;;42.88;30.10;;;;;;;2.26;100.00;97635.56;5011652;28;20030;-72
2024/01/18 02:29:00;;;;;;;40.03;29.00;;;;;;;2.57;100.00;97727.28;5010369;28;20393;-72
2024/01/18 02:31:26;;;;;;;43.92;28.50;;;;;;;2.89;100.00;97713.66;5011206;28;20117;-72
2024/01/18 02:33:52;;;;;;;40.85;28.00;;;;;;;2.55;100.00;97721.50;5011637;28;20581;-72
2024/01/18 02:36:19;;;;;;;37.38;26.67;;;;;;;2.77;100.00;97729.13;5011505;28;20034;-72
2024/01/18 02:38:45;;;;;;;36.85;26.70;;;;;;;2.62;100.00;97753.00;5012111;28;20072;-72
2024/01/18 02:41:11;;;;;;;35.17;25.90;;;;;;;2.59;100.00;97754.78;5010578;28;20026;-72
2024/01/18 02:43:37;;;;;;;35.58;26.23;;;;;;;2.74;100.00;97781.03;5010165;28;20037;-72
2024/01/18 02:46:03;;;;;;;37.70;26.20;;;;;;;2.48;100.00;97712.50;5010595;28;20040;-73
2024/01/18 02:48:28;;;;;;;39.47;27.60;;;;;;;2.65;100.00;97803.03;5011388;28;20034;-73
2024/01/18 02:50:54;;;;;;;39.35;27.25;;;;;;;2.70;100.00;97777.00;5010240;28;20064;-72
2024/01/18 02:53:21;;;;;;;43.33;30.38;;;;;;;2.89;100.00;97788.91;5010517;28;20042;-73
2024/01/18 02:55:49;;;;;;;46.92;31.35;;;;;;;2.62;100.00;97745.47;5010385;28;20033;-72
2024/01/18 02:58:14;;;;;;;46.65;31.38;;;;;;;2.61;100.00;97722.97;5011721;28;20038;-73
2024/01/18 03:00:40;;;;;;;39.88;30.05;;;;;;;2.83;100.00;97811.69;5010590;28;20041;-73
2024/01/18 03:03:05;;;;;;;44.35;30.27;;;;;;;2.22;100.00;97721.75;5010290;28;20045;-72
2024/01/18 03:05:34;;;;;;;47.80;33.55;;;;;;;2.67;100.00;97765.41;5010633;28;20037;-73
2024/01/18 03:07:59;;;;;;;51.75;34.75;;;;;;;2.58;100.00;97756.47;5009523;28;20065;-72
2024/01/18 03:10:25;;;;;;;47.85;31.63;;;;;;;2.60;100.00;97727.16;5015298;28;20519;-72
2024/01/18 03:12:51;;;;;;;39.65;27.77;;;;;;;3.06;100.00;97790.84;5029640;28;20083;-73
2024/01/18 03:15:16;;;;;;;40.38;28.45;;;;;;;2.98;100.00;97806.16;5030555;28;20418;-73
2024/01/18 03:17:41;;;;;;;43.15;28.13;;;;;;;2.57;100.00;97764.06;5030773;28;20087;-72
2024/01/18 03:20:08;;;;;;;42.03;28.17;;;;;;;2.28;100.00;97779.16;5028772;28;20117;-72
2024/01/18 03:22:34;;;;;;;41.35;29.05;;;;;;;3.01;100.00;97817.78;5011661;28;20125;-71
2024/01/18 03:25:00;;;;;;;46.38;31.88;;;;;;;2.82;100.00;97845.16;5030234;28;20029;-72
2024/01/18 03:27:26;;;;;;;39.20;27.05;;;;;;;2.54;100.00;97827.63;5030762;28;20388;-73
2024/01/18 03:29:51;;;;;;;36.67;26.45;;;;;;;2.25;100.00;97796.81;5013009;28;20135;-73
2024/01/18 03:32:17;;;;;;;37.95;26.48;;;;;;;2.43;100.00;97826.31;5030157;28;20076;-72
2024/01/18 03:34:44;;;;;;;39.95;26.40;;;;;;;2.30;100.00;97835.06;5030903;28;20060;-72
2024/01/18 03:37:09;;;;;;;38.10;27.48;;;;;;;2.32;100.00;97885.97;5027092;28;20487;-72
2024/01/18 03:39:36;;;;;;;38.47;25.77;;;;;;;2.55;100.00;97883.63;5012664;28;20084;-73
2024/01/18 03:42:01;;;;;;;42.13;30.23;;;;;;;2.60;100.00;97824.13;5029796;28;20113;-73
2024/01/18 03:44:26;;;;;;;38.65;28.63;;;;;;;2.57;100.00;97892.75;5029989;28;20120;-73
2024/01/18 03:46:52;;;;;;;40.90;28.27;;;;;;;2.72;100.00;97850.50;5029803;28;20502;-73
2024/01/18 03:49:17;;;;;;;39.80;28.05;;;;;;;2.90;100.00;97863.28;5030276;28;20187;-73
2024/01/18 03:51:43;;;;;;;37.42;26.13;;;;;;;2.93;100.00;97865.69;5029918;28;20040;-73
2024/01/18 03:54:08;;;;;;;35.08;26.52;;;;;;;2.76;100.00;97816.94;5029413;28;20025;-71
2024/01/18 03:56:33;;;;;;;36.58;25.95;;;;;;;2.86;100.00;97871.78;5010888;28;20573;-71
2024/01/18 03:59:01;;;;;;;34.67;25.48;;;;;;;3.75;100.00;97831.09;5029162;28;20045;-77
2024/01/18 04:01:30;;;;;;;36.95;27.73;;;;;;;2.98;100.00;97818.69;5029771;28;20037;-71
2024/01/18 04:03:56;;;;;;;40.15;27.33;;;;;;;5.29;100.00;97720.09;5029945;28;20068;-72
2024/01/18 04:06:21;;;;;;;42.92;29.40;;;;;;;3.19;100.00;97810.44;5028979;28;20057;-71
2024/01/18 04:08:46;;;;;;;42.13;30.20;;;;;;;2.97;100.00;97863.91;5011585;28;20029;-70
2024/01/18 04:11:12;;;;;;;42.35;30.30;;;;;;;2.94;100.00;97792.06;5011223;28;20073;-71
2024/01/18 04:13:37;;;;;;;46.25;30.83;;;;;;;2.86;100.00;97781.47;5028593;28;20025;-72
2024/01/18 04:16:04;;;;;;;42.25;31.25;;;;;;;3.23;100.00;97847.13;5028736;28;20584;-70
2024/01/18 04:18:30;;;;;;;51.50;35.95;;;;;;;3.26;100.00;97829.47;5027674;28;20497;-71
2024/01/18 04:20:55;;;;;;;51.58;37.58;;;;;;;2.69;100.00;97816.31;5009730;28;20065;-70
2024/01/18 04:23:21;;;;;;;45.53;34.58;;;;;;;2.52;100.00;97780.91;5028920;28;20040;-71
2024/01/18 04:25:51;;;;;;;46.72;34.65;;;;;;;2.72;100.00;97828.75;5028149;28;20296;-70
2024/01/18 04:28:20;;;;;;;48.00;34.25;;;;;;;2.75;100.00;97863.78;5028765;28;20038;-70
2024/01/18 04:30:45;;;;;;;42.47;30.05;;;;;;;2.48;100.00;97819.47;5011414;28;20501;-70
2024/01/18 04:33:11;;;;;;;41.15;28.77;;;;;;;2.77;100.00;97806.03;5009630;28;20026;-73
2024/01/18 04:35:36;;;;;;;41.35;28.60;;;;;;;2.94;100.00;97821.34;5024215;28;20128;-70
2024/01/18 04:38:02;;;;;;;39.53;28.52;;;;;;;2.91;100.00;97847.34;5011872;28;20479;-70
2024/01/18 04:40:28;;;;;;;41.13;28.55;;;;;;;2.71;100.00;97756.09;5027220;28;20029;-72
2024/01/18 04:42:53;;;;;;;40.67;28.52;;;;;;;2.72;100.00;97753.50;5027455;28;20071;-75
2024/01/18 04:45:19;;;;;;;41.17;27.83;;;;;;;2.65;100.00;97777.97;5028245;28;20060;-75
2024/01/18 04:47:45;;;;;;;38.10;28.92;;;;;;;2.81;100.00;97783.31;5015573;28;20116;-72
2024/01/18 04:50:12;;;;;;;40.72;30.10;;;;;;;2.53;100.00;97729.91;5013898;28;20108;-74
2024/01/18 04:52:38;;;;;;;43.53;28.95;;;;;;;2.91;100.00;97733.66;5028021;28;20527;-72
2024/01/18 04:55:04;;;;;;;42.92;28.73;;;;;;;3.04;100.00;97699.75;5027215;28;20032;-74
2024/01/18 04:57:35;;;;;;;82.03;44.38;;;;;;;2.63;100.00;97613.41;5027019;28;20032;-75
2024/01/18 05:00:01;;;;;;;78.43;39.63;;;;;;;2.86;100.00;97671.09;5027981;28;20026;-74
2024/01/18 05:02:26;;;;;;;77.75;40.78;;;;;;;2.89;100.00;97597.44;5013940;28;20038;-74
2024/01/18 05:04:52;;;;;;;67.10;39.33;;;;;;;3.12;100.00;97540.53;5012024;28;20045;-76
2024/01/18 05:07:18;;;;;;;47.33;32.42;;;;;;;2.81;100.00;97457.28;5012496;28;20073;-74
2024/01/18 05:09:43;;;;;;;42.50;31.27;;;;;;;2.91;100.00;97457.75;5025892;28;20025;-74
2024/01/18 05:12:09;;;;;;;45.80;33.05;;;;;;;2.99;100.00;97401.38;5027040;28;20052;-73
2024/01/18 05:14:34;;;;;;;47.35;33.10;;;;;;;3.26;100.00;97299.06;5012578;28;20503;-74
2024/01/18 05:17:10;;;;;;;45.08;33.13;;;;;;;3.14;100.00;97294.56;5027278;28;20517;-73
2024/01/18 05:19:35;;;;;;;47.67;33.65;;;;;;;3.00;100.00;97187.28;5026778;28;20502;-75
2024/01/18 05:22:01;;;;;;;47.50;34.35;;;;;;;2.73;100.00;97163.38;5008385;28;20029;-71
2024/01/18 05:24:26;;;;;;;51.47;35.35;;;;;;;2.61;100.00;97097.00;5027019;28;20057;-74
2024/01/18 05:26:52;;;;;;;47.55;35.63;;;;;;;3.19;100.00;97130.38;5027327;28;20032;-72
2024/01/18 05:29:17;;;;;;;51.58;37.70;;;;;;;3.04;100.00;97123.56;5026726;28;20041;-73
2024/01/18 05:31:42;;;;;;;54.88;39.28;;;;;;;3.34;100.00;97005.91;5026238;28;20036;-73
2024/01/18 05:34:08;;;;;;;74.80;50.38;;;;;;;2.86;100.00;96991.44;5026477;28;20037;-72
2024/01/18 05:36:33;;;;;;;98.18;64.85;;;;;;;3.27;100.00;97002.06;5026177;28;20029;-70
2024/01/18 05:38:59;;;;;;;179.57;113.05;;;;;;;3.30;100.00;96990.19;5025475;28;20072;-71
2024/01/18 05:41:24;;;;;;;94.53;62.65;;;;;;;3.26;100.00;96968.66;5026883;28;20065;-71
2024/01/18 05:43:50;;;;;;;113.43;72.18;;;;;;;3.12;100.00;96950.09;5027178;28;20026;-73
2024/01/18 05:46:15;;;;;;;63.70;45.28;;;;;;;3.36;100.00;96947.25;5009942;28;20029;-74
2024/01/18 05:48:40;;;;;;;56.00;36.95;;;;;;;4.35;100.00;96762.03;5027442;28;20025;-73
2024/01/18 05:51:06;;;;;;;64.68;46.22;;;;;;;3.22;100.00;96871.00;5026996;28;20057;-74
2024/01/18 05:53:31;;;;;;;67.22;47.33;;;;;;;3.43;100.00;96895.03;5010266;28;20499;-72
2024/01/18 05:55:59;;;;;;;66.43;48.58;;;;;;;2.81;100.00;96865.47;5010024;28;20045;-74
2024/01/18 05:58:26;;;;;;;62.92;45.20;;;;;;;3.17;100.00;96853.66;5009616;28;20025;-73
2024/01/18 06:00:51;;;;;;;64.82;46.80;;;;;;;3.34;100.00;96871.22;5009702;28;20599;-72
2024/01/18 06:03:17;;;;;;;60.58;44.67;;;;;;;3.32;100.00;96845.38;5028455;28;20048;-73
2024/01/18 06:05:42;;;;;;;63.50;44.97;;;;;;;3.53;100.00;96841.78;5012804;28;20048;-73
2024/01/18 06:08:08;;;;;;;88.65;59.15;;;;;;;3.33;100.00;96843.66;5031763;28;20044;-73
2024/01/18 06:10:33;;;;;;;93.97;66.65;;;;;;;3.49;100.00;96810.19;5032011;28;20120;-73
2024/01/18 06:12:59;;;;;;;99.70;73.25;;;;;;;3.34;100.00;96808.47;5013945;28;20083;-73
2024/01/18 06:15:25;;;;;;;88.78;63.28;;;;;;;3.27;100.00;96822.19;5031495;28;20025;-71
2024/01/18 06:17:50;;;;;;;78.20;55.80;;;;;;;3.22;100.00;96876.84;5030993;28;20131;-74
2024/01/18 06:20:15;;;;;;;81.50;58.33;;;;;;;3.11;100.00;96813.03;5031226;28;20045;-72
2024/01/18 06:22:41;;;;;;;83.03;58.17;;;;;;;3.65;100.00;96815.22;5013048;28;20034;-72
2024/01/18 06:25:06;;;;;;;68.78;49.83;;;;;;;3.54;100.00;96855.94;5013497;28;21571;-72
2024/01/18 06:27:33;;;;;;;73.25;53.00;;;;;;;3.66;100.00;96876.31;5031704;28;20029;-72
2024/01/18 06:29:59;;;;;;;97.10;64.38;;;;;;;3.59;100.00;96941.09;5014026;28;20041;-71
2024/01/18 06:32:25;;;;;;;101.90;67.07;;;;;;;3.62;100.00;96930.09;5013117;28;20488;-71
2024/01/18 06:34:50;;;;;;;91.63;61.67;;;;;;;3.22;100.00;96871.00;5031278;28;20436;-71
2024/01/18 06:37:16;;;;;;;100.32;68.05;;;;;;;3.70;100.00;96993.28;5012398;28;20068;-70
2024/01/18 06:39:42;;;;;;;111.20;75.32;;;;;;;3.38;100.00;96950.50;5031024;28;20103;-73
2024/01/18 06:42:08;;;;;;;143.02;95.07;;;;;;;3.88;100.00;96998.22;5012512;28;20107;-71
2024/01/18 06:44:34;;;;;;;173.70;125.07;;;;;;;3.63;100.00;96951.78;5031157;28;20450;-72
2024/01/18 06:47:00;;;;;;;93.15;64.85;;;;;;;3.45;100.00;96988.63;5014176;28;20041;-72
2024/01/18 06:49:26;;;;;;;115.07;84.72;;;;;;;3.75;100.00;97039.06;5031179;28;20099;-72
2024/01/18 06:51:51;;;;;;;79.22;53.22;;;;;;;3.63;100.00;97048.00;5031306;28;20491;-71
2024/01/18 06:54:21;;;;;;;67.00;46.40;;;;;;;3.54;100.00;97071.06;5030871;28;20029;-72
2024/01/18 06:56:47;;;;;;;65.88;46.90;;;;;;;3.64;100.00;97062.22;5031349;28;20029;-73
2024/01/18 06:59:14;;;;;;;66.55;46.38;;;;;;;3.53;100.00;97107.91;5013251;28;20038;-73
2024/01/18 07:01:39;;;;;;;59.35;43.30;;;;;;;3.59;100.00;97124.38;5030620;28;20040;-71
2024/01/18 07:04:05;;;;;;;56.60;39.58;;;;;;;3.49;100.00;97090.53;5013206;28;20112;-72
2024/01/18 07:06:30;;;;;;;67.65;42.05;;;;;;;3.67;100.00;97091.38;5030167;28;20128;-72
2024/01/18 07:08:56;;;;;;;57.05;38.92;;;;;;;3.86;100.00;97099.66;5030510;28;21305;-72
2024/01/18 07:11:21;;;;;;;58.47;37.40;;;;;;;3.05;100.00;97051.63;5030741;28;20482;-73
2024/01/18 07:13:46;;;;;;;59.15;38.70;;;;;;;3.86;100.00;97149.91;5030170;28;20098;-70
2024/01/18 07:16:12;;;;;;;51.50;36.25;;;;;;;3.92;100.00;97137.06;5030213;28;20116;-71
2024/01/18 07:18:38;;;;;;;51.97;37.08;;;;;;;3.66;100.00;97107.31;5012239;28;20696;-73
2024/01/18 07:21:04;;;;;;;57.70;38.67;;;;;;;3.83;100.00;97180.19;5031025;28;20029;-71
2024/01/18 07:23:29;;;;;;;55.65;38.47;;;;;;;3.77;100.00;97203.06;5029752;28;20037;-72
2024/01/18 07:25:55;;;;;;;56.97;37.75;;;;;;;3.90;100.00;97226.75;5030005;28;20037;-72
2024/01/18 07:28:21;;;;;;;58.95;39.53;;;;;;;4.03;100.00;97245.38;5029996;28;20045;-72
2024/01/18 07:30:47;;;;;;;62.38;44.13;;;;;;;3.73;100.00;97177.28;5012782;28;20458;-72
2024/01/18 07:33:12;;;;;;;91.22;58.00;;;;;;;4.15;100.00;97263.25;5012666;28;20041;-72
2024/01/18 07:35:38;;;;;;;82.65;58.83;;;;;;;4.13;100.00;97266.69;5013180;28;20051;-71
2024/01/18 07:38:04;;;;;;;76.63;56.88;;;;;;;4.13;100.00;97312.75;5012952;28;20103;-73
2024/01/18 07:40:29;;;;;;;72.45;52.00;;;;;;;3.74;100.00;97298.66;5012749;28;20061;-71
2024/01/18 07:42:55;;;;;;;73.13;47.47;;;;;;;3.89;100.00;97385.88;5011848;28;20470;-71
2024/01/18 07:45:20;;;;;;;62.20;43.58;;;;;;;4.11;100.00;97381.56;5012611;28;20125;-72
2024/01/18 07:47:46;;;;;;;67.65;46.95;;;;;;;4.14;100.00;97404.06;5029919;28;20426;-72
2024/01/18 07:50:12;;;;;;;67.25;49.30;;;;;;;4.28;100.00;97434.41;5030081;28;20040;-72
2024/01/18 07:52:38;;;;;;;68.63;48.85;;;;;;;3.99;100.00;97424.81;5030275;28;20518;-72
2024/01/18 07:55:08;;;;;;;71.63;48.58;;;;;;;4.04;100.00;97400.31;5030553;28;20033;-72
2024/01/18 07:57:34;;;;;;;75.95;54.53;;;;;;;4.11;100.00;97430.13;5014250;28;20033;-72
2024/01/18 08:00:00;;;;;;;76.68;54.42;;;;;;;4.27;100.00;97481.38;5029789;28;20025;-72
2024/01/18 08:02:26;;;;;;;96.63;62.97;;;;;;;4.19;100.00;97525.31;5011976;28;20030;-71
2024/01/18 08:04:52;;;;;;;81.03;55.38;;;;;;;4.02;100.00;97530.25;5029820;28;20025;-71
2024/01/18 08:07:17;;;;;;;83.68;57.63;;;;;;;4.35;100.00;97609.28;5011711;28;20454;-71
2024/01/18 08:09:42;;;;;;;85.13;58.45;;;;;;;4.30;100.00;97565.88;5029186;28;20120;-72
2024/01/18 08:12:08;;;;;;;88.20;61.45;;;;;;;4.60;100.00;97641.75;5030334;28;20045;-72
2024/01/18 08:14:39;;;;;;;86.05;62.33;;;;;;;4.65;100.00;97695.22;5029350;28;20037;-72
2024/01/18 08:17:05;;;;;;;104.82;79.30;;;;;;;4.48;100.00;97648.09;5029609;28;20021;-72
2024/01/18 08:19:30;;;;;;;109.70;81.20;;;;;;;4.54;100.00;97697.31;5029636;28;20033;-72
2024/01/18 08:21:56;;;;;;;103.45;75.03;;;;;;;4.69;100.00;97790.63;5029287;28;20061;-72
2024/01/18 08:24:21;;;;;;;89.90;60.63;;;;;;;4.34;100.00;97745.91;5011828;28;20104;-72
2024/01/18 08:26:46;;;;;;;78.55;51.75;;;;;;;4.63;100.00;97777.47;5011840;28;20040;-72
2024/01/18 08:29:12;;;;;;;70.97;53.10;;;;;;;4.95;100.00;97805.47;5028969;28;20029;-72
2024/01/18 08:31:37;;;;;;;86.50;67.68;;;;;;;4.99;100.00;97816.25;5029251;28;20462;-71
2024/01/18 08:34:03;;;;;;;85.90;63.20;;;;;;;4.79;100.00;97846.44;5029584;28;20491;-71
2024/01/18 08:36:28;;;;;;;72.63;50.58;;;;;;;5.11;100.00;97883.75;5029091;28;20533;-73
2024/01/18 08:38:54;;;;;;;59.55;41.45;;;;;;;4.95;100.00;97918.75;5027718;28;20044;-71
2024/01/18 08:41:20;;;;;;;56.70;37.58;;;;;;;4.97;100.00;97893.53;5011598;28;20139;-73
2024/01/18 08:43:47;;;;;;;55.97;39.88;;;;;;;4.94;100.00;97901.19;5028071;28;20032;-72
2024/01/18 08:46:14;;;;;;;48.92;33.85;;;;;;;4.86;100.00;97901.50;5030069;28;20040;-72
2024/01/18 08:48:40;;;;;;;51.97;35.17;;;;;;;5.22;100.00;97968.03;5029233;28;20128;-72
2024/01/18 08:51:12;;;;;;;50.53;37.50;;;;;;;5.04;100.00;97932.66;5029291;28;20511;-72
2024/01/18 08:53:40;;;;;;;51.65;35.53;;;;;;;5.08;100.00;98003.00;5029446;28;20041;-71
2024/01/18 08:56:06;;;;;;;47.92;34.80;;;;;;;5.24;100.00;98034.28;5011816;28;20033;-72
2024/01/18 08:58:31;;;;;;;48.30;33.72;;;;;;;5.36;100.00;98038.00;5029231;28;20036;-72
2024/01/18 09:00:57;;;;;;;48.80;33.65;;;;;;;5.51;100.00;98044.13;5011330;28;20163;-71
2024/01/18 09:03:22;;;;;;;54.38;36.28;;;;;;;5.38;100.00;98079.09;5011300;28;20033;-72
2024/01/18 09:05:48;;;;;;;56.40;38.17;;;;;;;5.74;100.00;98077.66;5010883;28;20072;-73
2024/01/18 09:08:13;;;;;;;57.45;37.47;;;;;;;5.67;100.00;98113.22;5028861;28;20088;-71
2024/01/18 09:10:39;;;;;;;45.10;33.17;;;;;;;5.58;100.00;98124.50;5011160;28;20049;-72
2024/01/18 09:13:04;;;;;;;52.40;36.28;;;;;;;5.59;100.00;98088.31;5011124;28;20041;-71
2024/01/18 09:15:29;;;;;;;50.50;34.83;;;;;;;5.51;100.00;98107.13;5028474;28;20575;-72
2024/01/18 09:17:55;;;;;;;42.65;32.45;;;;;;;5.73;100.00;98155.84;5028677;28;20033;-72
2024/01/18 09:20:20;;;;;;;49.10;33.72;;;;;;;6.08;100.00;98181.38;5010774;28;20044;-73
2024/01/18 09:22:46;;;;;;;44.63;34.05;;;;;;;5.98;100.00;98167.47;5028455;28;20041;-73
2024/01/18 09:25:11;;;;;;;47.28;33.38;;;;;;;6.21;100.00;98203.59;5029029;28;20055;-73
2024/01/18 09:27:36;;;;;;;49.00;34.47;;;;;;;6.22;100.00;98198.47;5011215;28;20053;-72
2024/01/18 09:30:02;;;;;;;48.88;33.83;;;;;;;6.31;100.00;98225.88;5011288;28;20030;-73
2024/01/18 09:32:28;;;;;;;48.90;34.85;;;;;;;6.41;100.00;98289.41;5028220;28;20044;-72
2024/01/18 09:34:53;;;;;;;55.80;38.78;;;;;;;6.25;100.00;98285.84;5028262;28;20099;-72
2024/01/18 09:37:18;;;;;;;57.72;40.75;;;;;;;6.52;100.00;98332.72;5028270;28;20087;-72
2024/01/18 09:39:45;;;;;;;50.90;38.17;;;;;;;6.64;100.00;98349.91;5011030;28;20029;-73
2024/01/18 09:42:17;;;;;;;54.08;40.42;;;;;;;6.59;100.00;98345.06;5014828;28;20064;-72
2024/01/18 09:44:48;;;;;;;51.33;38.85;;;;;;;6.69;100.00;98391.81;5014810;28;20036;-73
2024/01/18 09:47:17;;;;;;;53.30;39.38;;;;;;;6.34;100.00;98362.00;5032935;28;20029;-76
2024/01/18 09:49:45;;;;;;;52.90;36.95;;;;;;;6.38;100.00;98375.34;5032653;28;20060;-73
2024/01/18 09:52:11;;;;;;;51.58;37.38;;;;;;;6.66;100.00;98429.78;5014509;28;20033;-73
2024/01/18 09:54:38;;;;;;;54.20;37.75;;;;;;;6.71;100.00;98404.34;5032833;28;20087;-74
2024/01/18 09:57:07;;;;;;;58.45;40.13;;;;;;;6.60;100.00;98391.31;5032330;28;20037;-73
2024/01/18 09:59:35;;;;;;;48.63;34.10;;;;;;;6.75;100.00;98451.34;5014166;28;20032;-75
2024/01/18 10:02:01;;;;;;;45.78;33.97;;;;;;;6.58;100.00;98434.28;5031598;28;20061;-75
2024/01/18 10:04:27;;;;;;;46.97;32.90;;;;;;;6.95;100.00;98519.59;5032265;28;20462;-74
2024/01/18 10:06:54;;;;;;;45.47;34.33;;;;;;;7.11;100.00;98481.97;5031670;28;20104;-73
2024/01/18 10:09:19;;;;;;;44.22;31.73;;;;;;;6.84;100.00;98415.63;5031200;28;20037;-79
2024/01/18 10:11:46;;;;;;;47.85;33.63;;;;;;;7.10;100.00;98523.25;5029972;28;20392;-73
2024/01/18 10:14:12;;;;;;;43.67;33.47;;;;;;;6.92;100.00;98500.34;4667409;28;10000066;-69
2024/01/18 10:16:38;;;;;;;50.97;35.50;;;;;;;6.64;100.00;98517.34;5010503;28;20037;-75
2024/01/18 10:19:14;;;;;;;47.60;36.58;;;;;;;6.54;100.00;98532.88;5016728;28;20128;-73
2024/01/18 10:21:41;;;;;;;50.17;37.78;;;;;;;6.71;100.00;98569.31;5030009;28;20029;-74
2024/01/18 10:24:11;;;;;;;49.83;36.92;;;;;;;6.69;100.00;98565.19;5011387;28;20069;-75
2024/01/18 10:26:37;;;;;;;49.83;36.13;;;;;;;6.70;100.00;98615.59;5028184;28;20045;-72
2024/01/18 10:29:02;;;;;;;57.63;42.80;;;;;;;6.86;100.00;98583.06;5028338;28;20034;-73
2024/01/18 10:31:28;;;;;;;54.45;40.67;;;;;;;6.95;100.00;98651.75;5028910;28;20037;-74
2024/01/18 10:33:55;;;;;;;58.35;42.47;;;;;;;6.59;100.00;98591.63;5029377;28;20133;-73
2024/01/18 10:36:21;;;;;;;71.95;48.85;;;;;;;6.98;100.00;98633.97;5027557;28;20045;-73
2024/01/18 10:38:47;;;;;;;52.75;37.85;;;;;;;6.80;100.00;98654.00;5027970;28;20511;-73
2024/01/18 10:41:18;;;;;;;57.08;42.80;;;;;;;6.91;100.00;98659.50;5011707;28;20021;-73
2024/01/18 10:43:43;;;;;;;53.03;39.87;;;;;;;6.62;100.00;98610.00;5010705;28;20178;-76
2024/01/18 10:46:10;;;;;;;45.75;34.65;;;;;;;7.66;100.00;98648.31;5012394;28;20491;-71
2024/01/18 10:48:36;;;;;;;51.78;40.58;;;;;;;7.11;100.00;98648.72;5019470;28;20060;-74
2024/01/18 10:51:02;;;;;;;55.50;39.80;;;;;;;6.65;100.00;98591.41;5033561;28;20033;-73
2024/01/18 10:53:35;;;;;;;65.63;52.88;;;;;;;7.05;100.00;98646.41;5013610;28;20040;-73
2024/01/18 10:56:01;;;;;;;73.55;55.28;;;;;;;6.69;100.00;98583.69;5031450;28;20556;-75
2024/01/18 10:58:27;;;;;;;106.00;68.75;;;;;;;6.99;100.00;98663.41;5031604;28;20025;-73
2024/01/18 11:00:53;;;;;;;103.45;67.95;;;;;;;6.95;100.00;98634.06;5013904;28;20036;-74
2024/01/18 11:03:18;;;;;;;74.07;53.17;;;;;;;7.06;100.00;98656.44;5014161;28;20029;-74
2024/01/18 11:05:51;;;;;;;81.28;54.85;;;;;;;6.97;100.00;98603.72;5031052;28;20017;-73
2024/01/18 11:08:17;;;;;;;65.53;47.72;;;;;;;6.75;100.00;98610.41;5031747;28;20029;-73
2024/01/18 11:10:44;;;;;;;55.80;40.88;;;;;;;6.93;100.00;98656.03;5009897;28;20057;-73